Terminal Aerodrome Forecast
Issued by NWS Grand Rapids, MI

Home | Current Version | Previous Version | Text Only | Print | Product List | Glossary On
Versions: 1 2 3 4 5 6 7 8 9 10 11 12 13 14 15 16 17 18 19 20 21 22
121
FTUS43 KGRR 201125
TAFGRR
TAF
KGRR 201125Z 2012/2112 05008KT 2SM -RA BR BKN005 OVC050
     FM201300 08008KT 1SM -RA BR OVC003
     FM201800 09004KT 3/4SM -DZ BR OVC007
     FM202100 VRB04KT 4SM BR OVC007
     FM210400 17005KT 1 1/2SM BR OVC003
     FM211000 14006KT 1/2SM FG OVC001=

USA.gov is the U.S. government's official web portal to all federal, state and local government web resources and services.